Time;durP1;ratioP1;P1;durP2;ratioP2;P2;SDS_P1;SDS_P2;PMS_P1;PMS_P2;Temp;Humidity;BMP_temperature;BMP_pressure;BME280_temperature;BME280_humidity;BME280_pressure;Samples;Min_cycle;Max_cycle;Signal;HPM_P1;HPM_P2
2021/08/18 00:01:40;;;;;;;969.60;870.42;;;;;;;;;;5053998;28;20099;-79
2021/08/18 00:04:06;;;;;;;971.53;872.47;;;;;;;;;;5054152;28;20547;-78
2021/08/18 00:06:32;;;;;;;973.80;874.33;;;;;;;;;;5053051;28;20023;-77
2021/08/18 00:08:58;;;;;;;974.50;875.22;;;;;;;;;;5053438;28;20025;-77
2021/08/18 00:11:25;;;;;;;983.72;884.05;;;;;;;;;;5053914;28;20513;-77
2021/08/18 00:13:52;;;;;;;986.28;886.47;;;;;;;;;;5052443;28;20025;-77
2021/08/18 00:16:27;;;;;;;981.90;882.50;;;;;;;;;;5053444;28;20028;-77
2021/08/18 00:18:53;;;;;;;983.38;883.40;;;;;;;;;;5042875;28;20104;-78
2021/08/18 00:21:20;;;;;;;975.40;876.15;;;;;;;;;;5052282;28;20680;-78
2021/08/18 00:23:46;;;;;;;977.97;878.35;;;;;;;;;;5054104;28;20028;-78
2021/08/18 00:26:13;;;;;;;978.53;879.05;;;;;;;;;;5053285;28;20094;-78
2021/08/18 00:28:39;;;;;;;974.90;875.65;;;;;;;;;;5053615;28;20025;-78
2021/08/18 00:31:05;;;;;;;973.50;874.20;;;;;;;;;;5052244;28;20029;-78
2021/08/18 00:33:31;;;;;;;976.22;877.00;;;;;;;;;;5053459;28;20696;-78
2021/08/18 00:35:57;;;;;;;973.65;874.40;;;;;;;;;;5053685;28;20021;-78
2021/08/18 00:38:23;;;;;;;973.35;874.22;;;;;;;;;;5052233;28;20147;-78
2021/08/18 00:40:49;;;;;;;964.47;865.78;;;;;;;;;;5052180;28;20025;-76
2021/08/18 00:43:18;;;;;;;975.10;875.85;;;;;;;;;;5067820;28;20028;-77
2021/08/18 00:45:44;;;;;;;980.40;880.83;;;;;;;;;;5052121;28;20036;-78
2021/08/18 00:48:11;;;;;;;977.22;877.85;;;;;;;;;;5052412;28;20055;-78
2021/08/18 00:50:37;;;;;;;977.30;878.17;;;;;;;;;;5051870;28;20411;-77
2021/08/18 00:53:03;;;;;;;969.50;870.70;;;;;;;;;;5053449;28;20086;-79
2021/08/18 00:55:29;;;;;;;977.53;878.13;;;;;;;;;;5051688;28;20025;-78
2021/08/18 00:57:55;;;;;;;976.47;876.88;;;;;;;;;;5052945;28;20025;-78
2021/08/18 01:00:22;;;;;;;974.10;874.85;;;;;;;;;;5051527;28;20088;-77
2021/08/18 01:02:48;;;;;;;975.45;875.97;;;;;;;;;;5052725;28;20037;-78
2021/08/18 01:05:22;;;;;;;974.17;874.88;;;;;;;;;;5051569;28;20663;-78
2021/08/18 01:07:49;;;;;;;968.35;868.40;;;;;;;;;;5053026;28;20032;-77
2021/08/18 01:10:16;;;;;;;963.30;864.42;;;;;;;;;;5056224;28;20344;-79
2021/08/18 01:12:42;;;;;;;975.83;876.15;;;;;;;;;;5065759;28;20081;-78
2021/08/18 01:15:12;;;;;;;977.50;877.67;;;;;;;;;;5064706;28;20029;-78
2021/08/18 01:17:40;;;;;;;972.00;872.83;;;;;;;;;;5050924;28;20025;-78
2021/08/18 01:20:10;;;;;;;971.70;872.25;;;;;;;;;;5051210;28;20094;-78
2021/08/18 01:22:36;;;;;;;;;;;;;;;;;;5051206;28;20172;-78
2021/08/18 01:25:03;;;;;;;938.33;840.03;;;;;;;;;;5051116;28;20570;-78
2021/08/18 01:27:30;;;;;;;956.05;857.40;;;;;;;;;;5051873;28;20033;-78
2021/08/18 01:29:56;;;;;;;975.53;875.92;;;;;;;;;;5050745;28;20029;-78
2021/08/18 01:32:22;;;;;;;966.65;867.47;;;;;;;;;;5069441;28;20029;-78
2021/08/18 01:34:48;;;;;;;968.80;869.40;;;;;;;;;;5065891;28;20024;-78
2021/08/18 01:37:14;;;;;;;982.83;883.03;;;;;;;;;;5057692;28;20027;-78
2021/08/18 01:39:41;;;;;;;968.72;869.67;;;;;;;;;;5060675;28;20728;-78
2021/08/18 01:42:08;;;;;;;971.10;872.03;;;;;;;;;;5052197;28;20381;-78
2021/08/18 01:44:34;;;;;;;964.13;865.30;;;;;;;;;;5051886;28;20420;-77
2021/08/18 01:47:00;;;;;;;966.45;867.65;;;;;;;;;;5050408;28;20548;-78
2021/08/18 01:49:27;;;;;;;968.92;869.83;;;;;;;;;;5051252;28;20072;-78
2021/08/18 01:51:53;;;;;;;967.90;869.10;;;;;;;;;;5048890;28;20043;-77
2021/08/18 01:54:19;;;;;;;976.17;876.70;;;;;;;;;;5051615;28;20025;-78
2021/08/18 01:56:45;;;;;;;971.20;872.22;;;;;;;;;;5055267;28;20029;-78
2021/08/18 01:59:11;;;;;;;975.28;876.08;;;;;;;;;;5071934;28;20016;-78
2021/08/18 02:01:37;;;;;;;970.25;871.15;;;;;;;;;;5070657;28;20093;-78
2021/08/18 02:04:03;;;;;;;968.28;869.22;;;;;;;;;;5051187;28;20037;-78
2021/08/18 02:06:32;;;;;;;976.78;877.58;;;;;;;;;;5051432;28;20021;-78
2021/08/18 02:08:58;;;;;;;985.20;885.60;;;;;;;;;;5051380;28;20040;-78
2021/08/18 02:11:24;;;;;;;977.53;878.22;;;;;;;;;;5051132;28;20122;-78
2021/08/18 02:13:50;;;;;;;985.22;885.72;;;;;;;;;;5060180;28;20024;-78
2021/08/18 02:16:16;;;;;;;986.35;886.45;;;;;;;;;;5067490;28;20023;-77
2021/08/18 02:18:42;;;;;;;976.25;876.88;;;;;;;;;;5050422;28;20078;-78
2021/08/18 02:21:08;;;;;;;978.88;879.65;;;;;;;;;;5050181;28;20724;-78
2021/08/18 02:23:34;;;;;;;974.88;875.45;;;;;;;;;;5050146;28;20029;-78
2021/08/18 02:26:00;;;;;;;975.72;876.53;;;;;;;;;;5051725;28;20094;-78
2021/08/18 02:28:26;;;;;;;975.67;876.30;;;;;;;;;;5051192;28;20605;-78
2021/08/18 02:30:52;;;;;;;975.80;874.17;;;;;;;;;;5051259;28;20025;-78
2021/08/18 02:33:20;;;;;;;977.60;878.20;;;;;;;;;;5031377;28;20033;-78
2021/08/18 02:35:46;;;;;;;976.20;876.83;;;;;;;;;;5049221;28;20028;-78
2021/08/18 02:38:12;;;;;;;983.90;884.10;;;;;;;;;;5051253;28;20052;-78
2021/08/18 02:40:38;;;;;;;975.70;876.17;;;;;;;;;;5051233;28;20021;-79
2021/08/18 02:43:06;;;;;;;974.92;875.45;;;;;;;;;;5049695;28;20035;-80
2021/08/18 02:45:32;;;;;;;969.33;869.88;;;;;;;;;;5051676;28;20033;-82
2021/08/18 02:47:58;;;;;;;963.00;864.17;;;;;;;;;;5052068;28;20021;-80
2021/08/18 02:50:25;;;;;;;956.65;857.83;;;;;;;;;;5052353;28;20961;-80
2021/08/18 02:52:51;;;;;;;951.10;852.78;;;;;;;;;;5054231;28;20040;-78
2021/08/18 02:55:18;;;;;;;950.75;852.35;;;;;;;;;;5064011;28;20028;-78
2021/08/18 02:57:43;;;;;;;959.03;860.28;;;;;;;;;;5054423;28;20808;-78
2021/08/18 03:00:10;;;;;;;955.55;856.83;;;;;;;;;;5062924;28;20040;-78
2021/08/18 03:02:36;;;;;;;961.92;862.85;;;;;;;;;;5053374;28;20583;-78
2021/08/18 03:05:02;;;;;;;961.55;862.65;;;;;;;;;;5053944;28;20104;-77
2021/08/18 03:07:28;;;;;;;963.50;864.53;;;;;;;;;;5054530;28;20036;-78
2021/08/18 03:09:54;;;;;;;967.28;868.10;;;;;;;;;;5052212;28;20037;-78
2021/08/18 03:12:20;;;;;;;965.03;866.10;;;;;;;;;;5053820;28;20031;-78
2021/08/18 03:14:46;;;;;;;970.85;871.47;;;;;;;;;;5059091;28;20031;-77
2021/08/18 03:17:13;;;;;;;973.30;873.85;;;;;;;;;;5056481;28;20026;-78
2021/08/18 03:19:41;;;;;;;966.65;867.47;;;;;;;;;;5058796;28;20033;-78
2021/08/18 03:22:07;;;;;;;968.92;869.78;;;;;;;;;;5049574;28;20028;-78
2021/08/18 03:24:33;;;;;;;964.22;865.45;;;;;;;;;;5052434;28;20395;-78
2021/08/18 03:26:59;;;;;;;973.42;874.08;;;;;;;;;;5047306;28;20032;-77
2021/08/18 03:29:25;;;;;;;970.45;871.17;;;;;;;;;;5053426;28;20033;-78
2021/08/18 03:31:51;;;;;;;967.40;868.55;;;;;;;;;;5049037;28;20087;-78
2021/08/18 03:34:18;;;;;;;970.33;871.13;;;;;;;;;;5053816;28;20460;-79
2021/08/18 03:36:44;;;;;;;965.47;866.50;;;;;;;;;;5059212;28;20079;-78
2021/08/18 03:39:16;;;;;;;962.72;863.83;;;;;;;;;;5054102;28;20028;-79
2021/08/18 03:41:43;;;;;;;958.47;859.50;;;;;;;;;;5055676;28;20029;-79
2021/08/18 03:44:11;;;;;;;967.30;868.20;;;;;;;;;;5060411;28;20051;-81
2021/08/18 03:46:38;;;;;;;965.20;866.20;;;;;;;;;;5063600;28;20353;-81
2021/08/18 03:49:05;;;;;;;972.38;873.10;;;;;;;;;;5055025;28;20025;-80
2021/08/18 03:51:31;;;;;;;973.03;873.50;;;;;;;;;;5050388;28;20033;-81
2021/08/18 03:53:56;;;;;;;973.90;874.58;;;;;;;;;;5054908;28;20033;-80
2021/08/18 03:56:22;;;;;;;979.92;880.42;;;;;;;;;;5056538;28;20024;-79
2021/08/18 03:58:48;;;;;;;973.42;874.38;;;;;;;;;;5054186;28;20461;-79
2021/08/18 04:01:14;;;;;;;978.72;879.33;;;;;;;;;;5065368;28;20290;-80
2021/08/18 04:03:40;;;;;;;983.80;884.40;;;;;;;;;;5054587;28;20035;-79
2021/08/18 04:06:07;;;;;;;985.28;885.78;;;;;;;;;;5047997;28;20120;-79
2021/08/18 04:08:33;;;;;;;986.42;886.92;;;;;;;;;;5054215;28;20025;-79
2021/08/18 04:10:59;;;;;;;984.10;884.70;;;;;;;;;;5061683;28;20049;-80
2021/08/18 04:13:25;;;;;;;985.97;886.47;;;;;;;;;;5047563;28;20025;-79
2021/08/18 04:15:50;;;;;;;986.05;886.53;;;;;;;;;;5052286;28;20079;-79
2021/08/18 04:18:16;;;;;;;980.97;881.60;;;;;;;;;;5054198;28;20536;-77
2021/08/18 04:20:43;;;;;;;978.90;879.65;;;;;;;;;;5051387;28;20028;-76
2021/08/18 04:23:09;;;;;;;978.80;879.63;;;;;;;;;;5051864;28;20502;-77
2021/08/18 04:25:37;;;;;;;973.70;874.42;;;;;;;;;;5047480;28;20116;-77
2021/08/18 04:28:03;;;;;;;965.22;866.15;;;;;;;;;;5048958;28;20025;-76
2021/08/18 04:30:29;;;;;;;967.03;867.78;;;;;;;;;;5048987;28;20029;-76
2021/08/18 04:32:55;;;;;;;966.13;867.20;;;;;;;;;;5049791;28;20017;-76
2021/08/18 04:35:22;;;;;;;964.15;865.42;;;;;;;;;;5049846;28;20029;-77
2021/08/18 04:37:48;;;;;;;970.45;871.13;;;;;;;;;;5053144;28;20357;-76
2021/08/18 04:40:15;;;;;;;963.67;864.78;;;;;;;;;;5051630;28;20032;-79
2021/08/18 04:42:42;;;;;;;961.83;863.03;;;;;;;;;;5050624;28;20025;-81
2021/08/18 04:45:09;;;;;;;977.25;877.67;;;;;;;;;;5046369;28;20033;-81
2021/08/18 04:47:35;;;;;;;965.40;865.63;;;;;;;;;;5050399;28;20492;-82
2021/08/18 04:50:01;;;;;;;961.97;863.13;;;;;;;;;;5050296;28;20029;-82
2021/08/18 04:52:27;;;;;;;972.70;873.55;;;;;;;;;;5041246;28;20926;-84
2021/08/18 04:54:53;;;;;;;974.67;875.33;;;;;;;;;;5033478;28;20040;-82
2021/08/18 04:57:20;;;;;;;975.28;876.10;;;;;;;;;;5043104;28;20029;-84
2021/08/18 04:59:45;;;;;;;983.55;884.08;;;;;;;;;;5036772;28;20129;-82
2021/08/18 05:02:12;;;;;;;976.00;876.80;;;;;;;;;;5068071;28;20020;-82
2021/08/18 05:04:38;;;;;;;981.60;882.30;;;;;;;;;;5058118;28;20028;-82
2021/08/18 05:07:04;;;;;;;986.42;886.83;;;;;;;;;;5049093;28;20032;-82
2021/08/18 05:09:30;;;;;;;982.45;883.15;;;;;;;;;;5049035;28;20048;-82
2021/08/18 05:11:56;;;;;;;986.63;887.28;;;;;;;;;;5047423;28;20309;-82
2021/08/18 05:14:23;;;;;;;983.67;884.35;;;;;;;;;;5047131;28;20416;-83
2021/08/18 05:16:49;;;;;;;988.40;888.55;;;;;;;;;;5048615;28;20078;-83
2021/08/18 05:19:15;;;;;;;986.83;887.35;;;;;;;;;;5047362;28;20047;-83
2021/08/18 05:21:41;;;;;;;990.00;890.45;;;;;;;;;;5047192;28;20024;-84
2021/08/18 05:24:07;;;;;;;986.97;886.88;;;;;;;;;;5047089;28;20376;-85
2021/08/18 05:26:33;;;;;;;993.70;893.90;;;;;;;;;;5047643;28;20134;-85
2021/08/18 05:28:59;;;;;;;990.05;890.25;;;;;;;;;;5047242;28;20027;-86
2021/08/18 05:31:25;;;;;;;983.53;884.13;;;;;;;;;;5047743;28;20236;-85
2021/08/18 05:33:51;;;;;;;981.00;881.90;;;;;;;;;;5053304;28;20112;-85
2021/08/18 05:36:17;;;;;;;985.72;886.47;;;;;;;;;;5046897;28;20043;-87
2021/08/18 05:38:44;;;;;;;975.28;876.60;;;;;;;;;;5047705;28;20488;-84
2021/08/18 05:41:10;;;;;;;983.90;884.53;;;;;;;;;;5047341;28;20525;-85
2021/08/18 05:43:36;;;;;;;976.45;877.53;;;;;;;;;;5046449;28;20064;-85
2021/08/18 05:46:02;;;;;;;981.38;882.58;;;;;;;;;;5048346;28;20048;-85
2021/08/18 05:48:28;;;;;;;984.47;885.35;;;;;;;;;;5065666;28;20048;-85
2021/08/18 05:50:54;;;;;;;977.30;878.75;;;;;;;;;;5047210;28;20063;-85
2021/08/18 05:53:20;;;;;;;980.15;881.28;;;;;;;;;;5041571;28;20033;-85
2021/08/18 05:55:48;;;;;;;980.72;881.95;;;;;;;;;;5047140;28;20056;-85
2021/08/18 05:58:14;;;;;;;976.28;877.50;;;;;;;;;;5043229;28;20476;-85
2021/08/18 06:00:40;;;;;;;985.28;886.03;;;;;;;;;;5037370;28;20033;-85
2021/08/18 06:03:06;;;;;;;987.60;888.30;;;;;;;;;;5055012;28;20032;-85
2021/08/18 06:05:32;;;;;;;988.45;889.38;;;;;;;;;;5049670;28;20067;-85
2021/08/18 06:07:58;;;;;;;986.20;887.13;;;;;;;;;;5046614;28;21329;-84
2021/08/18 06:10:24;;;;;;;981.70;882.80;;;;;;;;;;5044664;28;20106;-85
2021/08/18 06:12:50;;;;;;;983.63;884.75;;;;;;;;;;5049474;28;20075;-84
2021/08/18 06:15:16;;;;;;;981.90;883.10;;;;;;;;;;5046393;28;20029;-84
2021/08/18 06:17:46;;;;;;;991.13;891.88;;;;;;;;;;5045562;28;20116;-85
2021/08/18 06:20:12;;;;;;;996.08;896.20;;;;;;;;;;5044781;28;20021;-85
2021/08/18 06:22:38;;;;;;;987.53;888.38;;;;;;;;;;5047482;28;20433;-86
2021/08/18 06:25:05;;;;;;;986.65;887.45;;;;;;;;;;5046645;28;20075;-85
2021/08/18 06:27:31;;;;;;;989.95;890.95;;;;;;;;;;5054440;28;20024;-84
2021/08/18 06:29:57;;;;;;;991.30;892.00;;;;;;;;;;5056234;28;20047;-85
2021/08/18 06:32:24;;;;;;;987.78;888.90;;;;;;;;;;5059955;28;20025;-84
2021/08/18 06:34:53;;;;;;;992.35;893.15;;;;;;;;;;5046610;28;20523;-84
2021/08/18 06:37:19;;;;;;;986.17;887.23;;;;;;;;;;5050023;28;20017;-85
2021/08/18 06:39:45;;;;;;;986.67;887.67;;;;;;;;;;5050308;28;20039;-85
2021/08/18 06:42:11;;;;;;;988.10;889.13;;;;;;;;;;5050311;28;20056;-85
2021/08/18 06:44:37;;;;;;;990.38;891.17;;;;;;;;;;5050512;28;20021;-85
2021/08/18 06:47:04;;;;;;;989.10;890.15;;;;;;;;;;5050834;28;20078;-85
2021/08/18 06:49:30;;;;;;;990.85;891.65;;;;;;;;;;5050085;28;20028;-86
2021/08/18 06:51:59;;;;;;;993.58;894.20;;;;;;;;;;5048280;28;20044;-83
2021/08/18 06:54:26;;;;;;;978.72;880.40;;;;;;;;;;5050139;28;20112;-84
2021/08/18 06:56:52;;;;;;;987.10;888.35;;;;;;;;;;5050312;28;20111;-84
2021/08/18 06:59:18;;;;;;;995.35;896.15;;;;;;;;;;5050487;28;20025;-85
2021/08/18 07:01:44;;;;;;;992.83;893.80;;;;;;;;;;5049605;28;20055;-85
2021/08/18 07:04:10;;;;;;;987.15;888.25;;;;;;;;;;5049270;28;20028;-84
2021/08/18 07:06:36;;;;;;;991.45;892.35;;;;;;;;;;5042200;28;20634;-85
2021/08/18 07:09:02;;;;;;;994.42;895.25;;;;;;;;;;5053208;28;20112;-86
2021/08/18 07:11:28;;;;;;;991.13;892.08;;;;;;;;;;5053588;28;20057;-85
2021/08/18 07:14:01;;;;;;;991.42;892.60;;;;;;;;;;5043093;28;20155;-85
2021/08/18 07:16:27;;;;;;;1002.22;902.38;;;;;;;;;;5048290;28;20017;-85
2021/08/18 07:18:54;;;;;;;1003.58;903.88;;;;;;;;;;5050582;28;20037;-86
2021/08/18 07:21:20;;;;;;;998.15;898.65;;;;;;;;;;5048642;28;20033;-87
2021/08/18 07:23:51;;;;;;;999.50;900.15;;;;;;;;;;5045321;28;20063;-87
2021/08/18 07:26:17;;;;;;;996.83;897.33;;;;;;;;;;5048661;28;20118;-86
2021/08/18 07:28:44;;;;;;;989.53;890.33;;;;;;;;;;5044387;28;20036;-87
2021/08/18 07:31:10;;;;;;;998.47;899.08;;;;;;;;;;5046702;28;20271;-86
2021/08/18 07:33:36;;;;;;;1001.10;901.78;;;;;;;;;;5065453;28;20028;-86
2021/08/18 07:36:03;;;;;;;996.58;896.17;;;;;;;;;;5055799;28;20075;-88
2021/08/18 07:38:29;;;;;;;996.92;897.47;;;;;;;;;;5049923;28;20374;-87
2021/08/18 07:40:55;;;;;;;998.60;899.20;;;;;;;;;;5055030;28;20035;-89
2021/08/18 07:43:21;;;;;;;1005.00;905.33;;;;;;;;;;5049259;28;20617;-87
2021/08/18 07:45:47;;;;;;;1005.47;905.83;;;;;;;;;;5043461;28;20091;-88
2021/08/18 07:48:13;;;;;;;1000.30;900.72;;;;;;;;;;5051046;28;20429;-88
2021/08/18 07:50:39;;;;;;;1004.20;904.70;;;;;;;;;;5049410;28;20071;-89
2021/08/18 07:53:05;;;;;;;1008.60;908.95;;;;;;;;;;5066435;28;20020;-89
2021/08/18 07:55:31;;;;;;;998.42;899.05;;;;;;;;;;5051634;28;20021;-88
2021/08/18 07:57:57;;;;;;;1003.78;904.20;;;;;;;;;;5049354;28;20116;-89
2021/08/18 08:00:23;;;;;;;1002.15;902.85;;;;;;;;;;5051780;28;20043;-89
2021/08/18 08:02:49;;;;;;;1005.00;905.63;;;;;;;;;;5051697;28;20093;-88
2021/08/18 08:05:15;;;;;;;999.00;899.80;;;;;;;;;;5053071;28;20116;-88
2021/08/18 08:07:42;;;;;;;1006.53;906.50;;;;;;;;;;5050968;28;20032;-88
2021/08/18 08:10:09;;;;;;;1007.80;908.20;;;;;;;;;;5049912;28;20041;-88
2021/08/18 08:12:35;;;;;;;1004.80;905.45;;;;;;;;;;5063187;28;20052;-87
2021/08/18 08:15:02;;;;;;;1008.50;908.50;;;;;;;;;;5048184;28;20060;-87
2021/08/18 08:17:28;;;;;;;1008.20;908.60;;;;;;;;;;5054465;28;20546;-87
2021/08/18 08:19:56;;;;;;;1010.88;911.30;;;;;;;;;;5059603;28;20396;-88
2021/08/18 08:22:22;;;;;;;1002.33;903.05;;;;;;;;;;5035508;28;20035;-86
2021/08/18 08:24:48;;;;;;;1007.47;907.70;;;;;;;;;;5050846;28;20325;-88
2021/08/18 08:27:14;;;;;;;1006.45;907.15;;;;;;;;;;5051285;28;20380;-87
2021/08/18 08:29:40;;;;;;;1016.20;916.30;;;;;;;;;;5063987;28;20106;-85
2021/08/18 08:32:06;;;;;;;1020.45;920.28;;;;;;;;;;5061540;28;20059;-86
2021/08/18 08:34:32;;;;;;;1023.35;922.75;;;;;;;;;;5045844;28;20028;-85
2021/08/18 08:36:59;;;;;;;1019.28;919.30;;;;;;;;;;5060366;28;20159;-83
2021/08/18 08:39:25;;;;;;;1016.63;916.85;;;;;;;;;;5061346;28;20475;-82
2021/08/18 08:41:51;;;;;;;1029.00;928.60;;;;;;;;;;5050083;28;20233;-84
2021/08/18 08:44:20;;;;;;;1025.70;925.60;;;;;;;;;;5053283;28;20120;-83
2021/08/18 08:46:47;;;;;;;1028.57;928.33;;;;;;;;;;5052981;28;20064;-82
2021/08/18 08:49:14;;;;;;;1029.05;928.63;;;;;;;;;;5047231;28;20055;-84
2021/08/18 08:51:41;;;;;;;1035.40;934.70;;;;;;;;;;5052857;28;20040;-83
2021/08/18 08:54:06;;;;;;;1033.55;933.08;;;;;;;;;;5049151;28;20053;-83
2021/08/18 08:56:33;;;;;;;1039.38;938.25;;;;;;;;;;5048625;28;20060;-85
2021/08/18 08:58:59;;;;;;;1038.53;937.75;;;;;;;;;;5055420;28;20032;-82
2021/08/18 09:01:25;;;;;;;1037.13;936.55;;;;;;;;;;5052801;28;20036;-82
2021/08/18 09:03:51;;;;;;;1051.13;949.83;;;;;;;;;;5043350;28;20431;-81
2021/08/18 09:06:21;;;;;;;1046.45;945.45;;;;;;;;;;5062780;28;20447;-84
2021/08/18 09:08:50;;;;;;;1043.53;942.63;;;;;;;;;;5046444;28;20442;-84
2021/08/18 09:11:17;;;;;;;1052.70;951.17;;;;;;;;;;5050375;28;20562;-84
2021/08/18 09:13:44;;;;;;;1048.00;946.80;;;;;;;;;;5056860;28;20095;-83
2021/08/18 09:16:11;;;;;;;1043.95;943.05;;;;;;;;;;5059713;28;20437;-85
2021/08/18 09:18:37;;;;;;;1048.38;947.38;;;;;;;;;;5057834;28;20500;-85
2021/08/18 09:21:03;;;;;;;1052.70;951.40;;;;;;;;;;5051849;28;20021;-85
2021/08/18 09:23:29;;;;;;;1061.30;959.33;;;;;;;;;;5045711;28;20336;-81
2021/08/18 09:25:55;;;;;;;1065.18;963.13;;;;;;;;;;5052957;28;20112;-80
2021/08/18 09:28:21;;;;;;;1061.85;959.88;;;;;;;;;;5045587;28;20171;-82
2021/08/18 09:30:48;;;;;;;1066.60;964.42;;;;;;;;;;5047742;28;20078;-81
2021/08/18 09:33:14;;;;;;;1072.05;969.80;;;;;;;;;;5062183;28;20032;-83
2021/08/18 09:35:41;;;;;;;1061.82;960.17;;;;;;;;;;5066982;28;20024;-83
2021/08/18 09:38:11;;;;;;;1064.07;962.17;;;;;;;;;;5059628;28;20065;-83
2021/08/18 09:40:47;;;;;;;1068.50;966.22;;;;;;;;;;5043944;28;20051;-81
2021/08/18 09:43:17;;;;;;;1059.30;957.60;;;;;;;;;;5048786;28;20455;-83
2021/08/18 09:45:43;;;;;;;;;;;;;;;;;;5051753;28;20048;-83
2021/08/18 09:48:09;;;;;;;1043.38;942.13;;;;;;;;;;5043835;28;20547;-83
2021/08/18 09:50:43;;;;;;;1060.47;958.58;;;;;;;;;;5041352;28;20021;-84
2021/08/18 09:53:24;;;;;;;1062.85;960.95;;;;;;;;;;5046444;28;20595;-83
2021/08/18 09:55:56;;;;;;;1066.38;964.30;;;;;;;;;;5051799;28;20314;-83
2021/08/18 09:58:28;;;;;;;1070.32;968.05;;;;;;;;;;5051031;28;20031;-83
2021/08/18 10:00:55;;;;;;;1066.93;965.03;;;;;;;;;;5046402;28;20036;-85
2021/08/18 10:03:21;;;;;;;1068.65;966.65;;;;;;;;;;5049756;28;20029;-84
2021/08/18 10:05:50;;;;;;;1076.90;974.53;;;;;;;;;;5049538;28;20059;-82
2021/08/18 10:08:18;;;;;;;1076.78;974.20;;;;;;;;;;5023884;28;20042;-84
2021/08/18 10:10:44;;;;;;;1079.10;976.70;;;;;;;;;;5010320;28;20136;-83
2021/08/18 10:13:11;;;;;;;1086.65;983.83;;;;;;;;;;5020977;28;20069;-83
2021/08/18 10:15:38;;;;;;;1086.60;983.85;;;;;;;;;;5016648;28;20025;-84
2021/08/18 10:18:05;;;;;;;1102.22;997.15;;;;;;;;;;5008690;28;20034;-81
2021/08/18 10:20:31;;;;;;;1105.68;998.85;;;;;;;;;;5023062;28;20041;-81
2021/08/18 10:23:02;;;;;;;1112.25;999.90;;;;;;;;;;5025519;28;20046;-79
2021/08/18 10:25:27;;;;;;;;;;;;;;;;;;5023532;28;20029;-80
2021/08/18 10:27:53;;;;;;;1097.57;993.80;;;;;;;;;;5008731;28;20125;-81
2021/08/18 10:30:23;;;;;;;1110.47;999.90;;;;;;;;;;5009381;28;20068;-80
2021/08/18 10:32:49;;;;;;;1103.63;997.58;;;;;;;;;;5012069;28;20026;-82
2021/08/18 10:35:37;;;;;;;1106.30;999.28;;;;;;;;;;5025215;28;20109;-82
2021/08/18 10:38:21;;;;;;;1111.47;999.90;;;;;;;;;;5009247;28;20029;-81
2021/08/18 10:40:47;;;;;;;1107.13;999.35;;;;;;;;;;5042922;28;20095;-82
2021/08/18 10:43:32;;;;;;;1098.68;994.95;;;;;;;;;;5052482;28;20056;-81
2021/08/18 10:45:58;;;;;;;1102.32;996.95;;;;;;;;;;5050742;28;20060;-81
2021/08/18 10:48:42;;;;;;;1111.35;999.90;;;;;;;;;;5050898;28;20064;-80
2021/08/18 10:51:08;;;;;;;1094.32;991.30;;;;;;;;;;5049569;28;20029;-81
2021/08/18 10:53:34;;;;;;;1088.18;985.20;;;;;;;;;;5050861;28;20028;-83
2021/08/18 10:56:01;;;;;;;1092.72;989.70;;;;;;;;;;5061444;28;20370;-79
2021/08/18 10:58:28;;;;;;;1093.50;990.60;;;;;;;;;;5049929;28;20017;-80
2021/08/18 11:00:54;;;;;;;1095.85;992.90;;;;;;;;;;5051179;28;20052;-80
2021/08/18 11:03:30;;;;;;;1093.45;990.35;;;;;;;;;;5059245;28;20029;-80
2021/08/18 11:05:58;;;;;;;1085.55;982.67;;;;;;;;;;5053938;28;20060;-79
2021/08/18 11:08:28;;;;;;;1081.80;979.50;;;;;;;;;;5056982;28;20024;-78
2021/08/18 11:10:54;;;;;;;1089.53;987.10;;;;;;;;;;5068444;28;20044;-81
2021/08/18 11:13:43;;;;;;;1076.30;974.10;;;;;;;;;;5053403;28;20041;-81
2021/08/18 11:16:11;;;;;;;1081.30;978.90;;;;;;;;;;5054745;28;20107;-80
2021/08/18 11:18:37;;;;;;;1077.80;975.72;;;;;;;;;;5052203;28;20664;-82
2021/08/18 11:21:04;;;;;;;1078.07;975.65;;;;;;;;;;5053697;28;20033;-80
2021/08/18 11:23:31;;;;;;;1080.18;978.10;;;;;;;;;;5054509;28;20036;-82
2021/08/18 11:25:58;;;;;;;1080.40;978.05;;;;;;;;;;5065026;28;20036;-83
2021/08/18 11:28:26;;;;;;;1084.72;982.25;;;;;;;;;;5058530;28;20025;-80
2021/08/18 11:31:10;;;;;;;1080.90;978.45;;;;;;;;;;5063076;28;20083;-80
2021/08/18 11:33:37;;;;;;;1083.25;980.63;;;;;;;;;;5053977;28;20025;-81
2021/08/18 11:36:12;;;;;;;1097.03;993.75;;;;;;;;;;5057853;28;20061;-82
2021/08/18 11:38:38;;;;;;;1086.78;984.08;;;;;;;;;;5058775;28;20078;-81
2021/08/18 11:41:04;;;;;;;1098.25;994.72;;;;;;;;;;5056455;28;20029;-82
2021/08/18 11:43:39;;;;;;;1104.03;998.33;;;;;;;;;;5055360;28;20043;-79
2021/08/18 11:46:06;;;;;;;1093.47;990.58;;;;;;;;;;5058011;28;20052;-81
2021/08/18 11:48:33;;;;;;;1098.20;994.80;;;;;;;;;;5061416;28;20533;-82
2021/08/18 11:51:00;;;;;;;1102.05;996.63;;;;;;;;;;5066259;28;20067;-82
2021/08/18 11:53:27;;;;;;;1110.07;999.78;;;;;;;;;;5059240;28;20021;-81
2021/08/18 11:56:03;;;;;;;1106.68;999.25;;;;;;;;;;5055647;28;20469;-82
2021/08/18 11:58:35;;;;;;;1111.20;999.90;;;;;;;;;;5053400;28;20028;-82
2021/08/18 12:01:01;;;;;;;1103.03;997.72;;;;;;;;;;5053060;28;20124;-81
2021/08/18 12:03:28;;;;;;;1107.90;999.40;;;;;;;;;;5054161;28;20119;-81
2021/08/18 12:05:58;;;;;;;1112.75;999.90;;;;;;;;;;5060628;28;20112;-80
2021/08/18 12:08:34;;;;;;;1117.63;999.90;;;;;;;;;;5051259;28;20108;-81
2021/08/18 12:11:00;;;;;;;1115.65;999.90;;;;;;;;;;5050984;28;20045;-80
2021/08/18 12:13:36;;;;;;;1117.65;999.90;;;;;;;;;;5056554;28;20033;-81
2021/08/18 12:16:02;;;;;;;1114.47;999.90;;;;;;;;;;5052543;28;20021;-80
2021/08/18 12:18:29;;;;;;;1127.07;999.90;;;;;;;;;;5052308;28;20468;-79
2021/08/18 12:21:15;;;;;;;1117.63;999.90;;;;;;;;;;5051849;28;20036;-81
2021/08/18 12:23:43;;;;;;;1106.70;999.13;;;;;;;;;;5061440;28;20024;-82
2021/08/18 12:26:27;;;;;;;1112.53;999.90;;;;;;;;;;5052869;28;20105;-81
2021/08/18 12:28:55;;;;;;;1111.85;999.90;;;;;;;;;;5045322;28;20110;-80
2021/08/18 12:31:21;;;;;;;1114.43;999.90;;;;;;;;;;5049316;28;20036;-81
2021/08/18 12:34:06;;;;;;;1113.65;999.90;;;;;;;;;;5048637;28;20025;-81
2021/08/18 12:36:37;;;;;;;1122.70;999.90;;;;;;;;;;5050798;28;20036;-84
2021/08/18 12:39:04;;;;;;;1128.15;999.90;;;;;;;;;;5055098;28;20037;-81
2021/08/18 12:41:31;;;;;;;1133.22;999.90;;;;;;;;;;5058015;28;20024;-79
2021/08/18 12:44:05;;;;;;;1145.22;999.90;;;;;;;;;;5052555;28;20037;-81
2021/08/18 12:46:40;;;;;;;1138.40;999.90;;;;;;;;;;5048594;28;20048;-80
2021/08/18 12:49:28;;;;;;;1133.72;999.90;;;;;;;;;;5058975;28;20029;-80
2021/08/18 12:51:58;;;;;;;1122.40;999.90;;;;;;;;;;5049233;28;20496;-81
2021/08/18 12:54:25;;;;;;;;;;;;;;;;;;5057647;28;20029;-82
2021/08/18 12:56:51;;;;;;;1097.72;994.72;;;;;;;;;;5068171;28;20027;-80
2021/08/18 12:59:18;;;;;;;1106.45;998.90;;;;;;;;;;5063272;28;20091;-82
2021/08/18 13:01:44;;;;;;;1106.72;999.25;;;;;;;;;;5062169;28;20025;-78
2021/08/18 13:04:10;;;;;;;1104.68;998.40;;;;;;;;;;5052726;28;20040;-83
2021/08/18 13:06:36;;;;;;;1100.05;996.33;;;;;;;;;;5057356;28;20357;-80
2021/08/18 13:09:02;;;;;;;1101.65;997.72;;;;;;;;;;5050947;28;20036;-79
2021/08/18 13:11:29;;;;;;;1094.28;991.60;;;;;;;;;;5055870;28;20029;-79
2021/08/18 13:13:55;;;;;;;1097.07;994.10;;;;;;;;;;5063693;28;20021;-81
2021/08/18 13:16:21;;;;;;;1096.53;993.63;;;;;;;;;;5071255;28;20016;-80
2021/08/18 13:18:48;;;;;;;1095.90;993.10;;;;;;;;;;5073527;28;20107;-79
2021/08/18 13:21:14;;;;;;;1100.78;997.00;;;;;;;;;;5057881;28;20025;-82
2021/08/18 13:23:40;;;;;;;1101.45;997.25;;;;;;;;;;5051490;28;20323;-81
2021/08/18 13:26:06;;;;;;;1099.40;995.45;;;;;;;;;;5052155;28;20025;-81
2021/08/18 13:28:32;;;;;;;1106.88;998.97;;;;;;;;;;5051220;28;20083;-81
2021/08/18 13:30:58;;;;;;;1113.30;999.90;;;;;;;;;;5051060;28;20033;-82
2021/08/18 13:33:24;;;;;;;1117.40;999.90;;;;;;;;;;5057666;28;20023;-82
2021/08/18 13:35:50;;;;;;;1118.40;999.90;;;;;;;;;;5057839;28;20033;-82
2021/08/18 13:38:17;;;;;;;1123.65;999.90;;;;;;;;;;5052519;28;20461;-82
2021/08/18 13:40:44;;;;;;;1121.28;999.90;;;;;;;;;;5057666;28;20028;-81
2021/08/18 13:43:10;;;;;;;1112.15;999.90;;;;;;;;;;5055320;28;20040;-82
2021/08/18 13:45:39;;;;;;;1117.18;999.90;;;;;;;;;;5053051;28;20021;-79
2021/08/18 13:48:05;;;;;;;1121.15;999.90;;;;;;;;;;5055277;28;20584;-80
2021/08/18 13:50:31;;;;;;;1123.50;999.90;;;;;;;;;;5050206;28;20063;-81